createdAt,value
2018-10-11T00:01:22.351Z,81.28
2018-10-11T00:03:51.708Z,80.93
2018-10-11T00:06:20.920Z,80.88
2018-10-11T00:08:50.234Z,80.76
2018-10-11T00:11:19.432Z,81.51
2018-10-11T00:13:48.664Z,80.66
2018-10-11T00:16:17.838Z,80.91
2018-10-11T00:18:47.028Z,80.97
2018-10-11T00:21:16.273Z,81.28
2018-10-11T00:23:45.433Z,81.45
2018-10-11T00:26:14.560Z,81.48
2018-10-11T00:28:43.844Z,81.71
2018-10-11T00:31:13.016Z,81.39
2018-10-11T00:33:42.179Z,81.80
2018-10-11T00:36:11.431Z,81.45
2018-10-11T00:38:40.648Z,81.66
2018-10-11T00:41:09.852Z,82.00
2018-10-11T00:43:40.083Z,82.86
2018-10-11T00:46:09.309Z,81.93
2018-10-11T00:48:39.895Z,82.40
2018-10-11T00:51:09.168Z,82.52
2018-10-11T00:53:38.379Z,81.95
2018-10-11T00:56:07.825Z,82.28
2018-10-11T00:58:37.125Z,82.03
2018-10-11T01:01:06.352Z,82.51
2018-10-11T01:03:35.679Z,82.49
2018-10-11T01:06:04.930Z,81.71
2018-10-11T01:08:34.179Z,82.03
2018-10-11T01:11:03.434Z,82.42
2018-10-11T01:13:32.660Z,82.61
2018-10-11T01:16:03.034Z,82.58
2018-10-11T01:18:32.267Z,82.92
2018-10-11T01:21:01.518Z,83.05
2018-10-11T01:23:30.890Z,83.15
2018-10-11T01:26:00.174Z,82.84
2018-10-11T01:28:29.409Z,82.82
2018-10-11T01:31:03.818Z,83.41
2018-10-11T01:33:33.024Z,83.62
2018-10-11T01:36:02.322Z,83.63
2018-10-11T01:38:31.544Z,83.48
2018-10-11T01:41:00.831Z,83.56
2018-10-11T01:43:30.101Z,83.83
2018-10-11T01:45:59.324Z,83.94
2018-10-11T01:48:28.619Z,83.49
2018-10-11T01:50:57.824Z,83.59
2018-10-11T01:53:27.012Z,83.36
2018-10-11T01:55:57.160Z,83.08
2018-10-11T01:58:26.321Z,83.34
2018-10-11T02:00:55.491Z,83.10
2018-10-11T02:03:24.720Z,83.09
2018-10-11T02:05:53.991Z,83.29
2018-10-11T02:08:23.224Z,83.94
2018-10-11T02:10:53.348Z,83.64
2018-10-11T02:13:22.580Z,83.67
2018-10-11T02:15:51.785Z,84.19
2018-10-11T02:18:21.099Z,83.79
2018-10-11T02:20:50.379Z,84.55
2018-10-11T02:23:19.524Z,84.47
2018-10-11T02:25:48.832Z,84.84
2018-10-11T02:28:18.001Z,84.74
2018-10-11T02:30:47.203Z,84.39
2018-10-11T02:33:16.569Z,84.23
2018-10-11T02:35:45.720Z,84.09
2018-10-11T02:38:14.914Z,84.10
2018-10-11T02:40:44.141Z,84.41
2018-10-11T02:43:13.373Z,84.12
2018-10-11T02:45:42.624Z,83.96
2018-10-11T02:48:11.752Z,84.19
2018-10-11T02:50:41.044Z,84.62
2018-10-11T02:53:10.348Z,84.82
2018-10-11T02:55:39.643Z,84.90
2018-10-11T02:58:19.985Z,85.10
2018-10-11T03:00:49.262Z,85.33
2018-10-11T03:03:22.468Z,85.33
2018-10-11T03:05:52.135Z,85.42
2018-10-11T03:08:22.879Z,85.41
2018-10-11T03:10:52.243Z,85.36
2018-10-11T03:13:21.429Z,85.12
2018-10-11T03:15:50.807Z,85.07
2018-10-11T03:18:20.117Z,84.75
2018-10-11T03:20:49.344Z,84.68
2018-10-11T03:23:18.545Z,84.53
2018-10-11T03:25:47.750Z,85.28
2018-10-11T03:28:17.760Z,85.10
2018-10-11T03:30:47.007Z,85.23
2018-10-11T03:33:16.280Z,85.15
2018-10-11T03:35:46.144Z,85.29
2018-10-11T03:38:15.350Z,85.03
2018-10-11T03:40:44.621Z,84.61
2018-10-11T03:43:13.784Z,84.59
2018-10-11T03:45:43.024Z,85.09
2018-10-11T03:48:12.278Z,84.90
2018-10-11T03:50:41.432Z,85.04
2018-10-11T03:53:10.560Z,85.14
2018-10-11T03:55:39.817Z,85.13
2018-10-11T03:58:08.956Z,85.23
2018-10-11T04:00:38.226Z,85.00
2018-10-11T04:03:07.445Z,85.39
2018-10-11T04:05:36.624Z,85.14
2018-10-11T04:08:05.937Z,85.26
2018-10-11T04:10:35.123Z,85.10
2018-10-11T04:13:04.311Z,85.04
2018-10-11T04:15:33.518Z,85.04
2018-10-11T04:18:02.671Z,84.78
2018-10-11T04:20:31.901Z,84.69
2018-10-11T04:23:01.077Z,84.59
2018-10-11T04:25:30.255Z,84.67
2018-10-11T04:27:59.585Z,84.80
2018-10-11T04:30:28.741Z,85.27
2018-10-11T04:32:58.249Z,85.38
2018-10-11T04:35:27.487Z,84.85
2018-10-11T04:37:56.719Z,85.12
2018-10-11T04:40:25.876Z,85.28
2018-10-11T04:42:55.171Z,85.06
2018-10-11T04:45:24.381Z,85.10
2018-10-11T04:47:53.547Z,85.07
2018-10-11T04:50:22.844Z,85.22
2018-10-11T04:52:52.100Z,85.42
2018-10-11T04:55:21.305Z,84.83
2018-10-11T04:57:50.561Z,84.70
2018-10-11T05:00:19.714Z,85.31
2018-10-11T05:02:48.868Z,85.60
2018-10-11T05:05:18.140Z,85.61
2018-10-11T05:07:47.321Z,85.67
2018-10-11T05:10:17.107Z,85.70
2018-10-11T05:12:46.495Z,85.56
2018-10-11T05:15:15.652Z,85.88
2018-10-11T05:17:45.933Z,85.35
2018-10-11T05:20:15.262Z,85.72
2018-10-11T05:22:44.444Z,85.39
2018-10-11T05:25:13.886Z,85.35
2018-10-11T05:27:43.675Z,85.11
2018-10-11T05:30:12.898Z,85.65
2018-10-11T05:32:42.228Z,85.88
2018-10-11T05:35:11.377Z,86.09
2018-10-11T05:37:40.562Z,86.26
2018-10-11T05:40:09.817Z,86.07
2018-10-11T05:42:39.106Z,85.82
2018-10-11T05:45:13.560Z,85.51
2018-10-11T05:47:43.670Z,85.47
2018-10-11T05:50:13.336Z,85.46
2018-10-11T05:52:43.837Z,85.40
2018-10-11T05:55:13.343Z,85.58
2018-10-11T05:57:42.960Z,85.68
2018-10-11T06:00:12.616Z,85.57
2018-10-11T06:03:01.947Z,85.64
2018-10-11T06:05:31.671Z,85.98
2018-10-11T06:08:01.957Z,86.10
2018-10-11T06:10:33.817Z,86.69
2018-10-11T06:13:04.842Z,86.75
2018-10-11T06:15:34.519Z,86.78
2018-10-11T06:18:04.118Z,86.89
2018-10-11T06:20:33.344Z,86.88
2018-10-11T06:23:02.531Z,86.54
2018-10-11T06:25:31.838Z,86.81
2018-10-11T06:28:01.115Z,86.34
2018-10-11T06:30:31.565Z,86.50
2018-10-11T06:33:01.456Z,86.75
2018-10-11T06:35:30.722Z,86.09
2018-10-11T06:38:00.589Z,86.40
2018-10-11T06:40:29.815Z,86.20
2018-10-11T06:42:59.087Z,86.38
2018-10-11T06:45:28.333Z,86.68
2018-10-11T06:47:59.883Z,87.23
2018-10-11T06:50:29.109Z,87.27
2018-10-11T06:52:59.570Z,86.96
2018-10-11T06:55:28.712Z,87.21
2018-10-11T06:57:57.966Z,87.32
2018-10-11T07:00:27.153Z,87.28
2018-10-11T07:02:56.361Z,87.47
2018-10-11T07:05:25.532Z,87.43
2018-10-11T07:07:54.672Z,87.49
2018-10-11T07:10:26.962Z,87.19
2018-10-11T07:12:56.095Z,87.75
2018-10-11T07:15:25.358Z,87.43
2018-10-11T07:17:54.570Z,87.62
2018-10-11T07:20:23.725Z,87.26
2018-10-11T07:22:52.987Z,87.62
2018-10-11T07:25:22.197Z,87.61
2018-10-11T07:27:51.546Z,87.28
2018-10-11T07:30:20.759Z,87.71
2018-10-11T07:32:49.942Z,87.35
2018-10-11T07:35:19.369Z,87.67
2018-10-11T07:37:48.446Z,87.39
2018-10-11T07:40:17.684Z,87.03
2018-10-11T07:42:46.864Z,86.74
2018-10-11T07:45:16.012Z,86.63
2018-10-11T07:47:45.240Z,86.48
2018-10-11T07:50:14.373Z,86.51
2018-10-11T07:52:43.540Z,86.33
2018-10-11T07:55:12.689Z,85.99
2018-10-11T07:57:41.788Z,86.03
2018-10-11T08:00:12.861Z,85.72
2018-10-11T08:02:43.154Z,85.52
2018-10-11T08:05:12.636Z,85.16
2018-10-11T08:07:42.286Z,85.03
2018-10-11T08:10:11.456Z,84.16
2018-10-11T08:12:40.636Z,83.55
2018-10-11T08:15:09.793Z,83.15
2018-10-11T08:17:39.222Z,83.29
2018-10-11T08:20:08.191Z,83.10
2018-10-11T08:22:37.304Z,82.94
2018-10-11T08:25:06.734Z,83.04
2018-10-11T08:27:35.773Z,82.52
2018-10-11T08:30:05.542Z,81.99
2018-10-11T08:32:34.834Z,81.16
2018-10-11T08:35:03.848Z,80.59
2018-10-11T08:37:33.157Z,79.84
2018-10-11T08:40:02.329Z,79.52
2018-10-11T08:42:31.470Z,79.76
2018-10-11T08:45:00.689Z,79.93
2018-10-11T08:47:29.841Z,79.57
2018-10-11T08:49:58.964Z,79.63
2018-10-11T08:52:28.105Z,78.83
2018-10-11T08:54:57.294Z,78.54
2018-10-11T08:57:26.566Z,77.92
2018-10-11T08:59:55.676Z,78.03
2018-10-11T09:02:24.832Z,78.18
2018-10-11T09:04:53.962Z,78.46
2018-10-11T09:07:23.143Z,78.10
2018-10-11T09:09:53.686Z,77.01
2018-10-11T09:12:21.625Z,77.04
2018-10-11T09:14:51.092Z,77.05
2018-10-11T09:17:20.301Z,77.35
2018-10-11T09:19:49.515Z,76.40
2018-10-11T09:22:18.695Z,76.55
2018-10-11T09:24:47.830Z,75.80
2018-10-11T09:27:16.972Z,75.42
2018-10-11T09:29:46.130Z,75.54
2018-10-11T09:32:15.299Z,73.70
2018-10-11T09:34:44.465Z,73.67
2018-10-11T09:37:13.673Z,72.96
2018-10-11T09:39:42.875Z,73.26
2018-10-11T09:42:12.000Z,72.43
2018-10-11T09:44:41.161Z,71.91
2018-10-11T09:47:10.338Z,72.64
2018-10-11T09:49:39.518Z,71.96
2018-10-11T09:52:08.765Z,71.63
2018-10-11T09:54:37.960Z,69.74
2018-10-11T09:57:19.420Z,69.90
2018-10-11T09:59:48.554Z,69.95
2018-10-11T10:02:17.764Z,70.13
2018-10-11T10:04:48.119Z,68.61
2018-10-11T10:07:17.263Z,68.54
2018-10-11T10:09:47.019Z,67.69
2018-10-11T10:12:16.636Z,68.26
2018-10-11T10:14:46.647Z,67.50
2018-10-11T10:17:15.843Z,65.96
2018-10-11T10:19:45.572Z,65.08
2018-10-11T10:22:14.736Z,64.54
2018-10-11T10:24:43.968Z,63.05
2018-10-11T10:27:13.142Z,63.76
2018-10-11T10:29:42.232Z,61.93
2018-10-11T10:32:11.347Z,60.98
2018-10-11T10:34:40.500Z,62.39
2018-10-11T10:37:09.765Z,62.69
2018-10-11T10:39:38.904Z,61.65
2018-10-11T10:42:08.070Z,62.26
2018-10-11T10:44:37.199Z,60.62
2018-10-11T10:47:06.372Z,59.26
2018-10-11T10:49:35.491Z,58.51
2018-10-11T10:52:04.673Z,59.51
2018-10-11T10:54:34.996Z,60.59
2018-10-11T10:57:04.838Z,59.00
2018-10-11T10:59:33.998Z,59.00
2018-10-11T11:02:03.247Z,58.95
2018-10-11T11:04:32.368Z,58.59
2018-10-11T11:07:01.521Z,57.77
2018-10-11T11:09:30.696Z,58.55
2018-10-11T11:11:59.857Z,57.84
2018-10-11T11:14:29.103Z,57.35
2018-10-11T11:16:58.293Z,56.71
2018-10-11T11:19:27.437Z,57.72
2018-10-11T11:21:56.809Z,57.52
2018-10-11T11:24:25.956Z,55.65
2018-10-11T11:26:55.115Z,55.98
2018-10-11T11:29:24.231Z,56.20
2018-10-11T11:31:53.415Z,55.38
2018-10-11T11:34:22.592Z,55.23
2018-10-11T11:36:51.764Z,55.65
2018-10-11T11:39:20.848Z,56.27
2018-10-11T11:41:49.966Z,55.21
2018-10-11T11:44:19.152Z,56.71
2018-10-11T11:46:48.304Z,55.49
2018-10-11T11:49:17.458Z,54.78
2018-10-11T11:51:46.723Z,56.20
2018-10-11T11:54:21.168Z,55.22
2018-10-11T11:56:51.312Z,54.57
2018-10-11T11:59:20.458Z,54.54
2018-10-11T12:01:49.596Z,54.44
2018-10-11T12:04:18.802Z,54.55
2018-10-11T12:06:47.937Z,53.99
2018-10-11T12:09:17.201Z,55.35
2018-10-11T12:11:46.384Z,54.20
2018-10-11T12:14:15.608Z,53.14
2018-10-11T12:16:44.806Z,52.90
2018-10-11T12:19:13.924Z,54.53
2018-10-11T12:21:43.159Z,52.33
2018-10-11T12:24:12.304Z,53.80
2018-10-11T12:26:41.693Z,53.16
2018-10-11T12:29:10.840Z,52.45
2018-10-11T12:31:39.984Z,53.66
2018-10-11T12:34:09.152Z,52.69
2018-10-11T12:36:38.447Z,53.27
2018-10-11T12:39:08.506Z,52.49
2018-10-11T12:41:37.703Z,51.83
2018-10-11T12:44:07.084Z,52.36
2018-10-11T12:46:38.913Z,52.08
2018-10-11T12:49:05.661Z,52.12
2018-10-11T12:51:34.878Z,51.70
2018-10-11T12:54:04.019Z,51.13
2018-10-11T12:56:33.250Z,52.87
2018-10-11T12:59:02.422Z,52.88
2018-10-11T13:01:31.586Z,51.87
2018-10-11T13:04:00.734Z,50.90
2018-10-11T13:06:30.081Z,51.31
2018-10-11T13:08:59.306Z,50.75
2018-10-11T13:11:28.460Z,50.95
2018-10-11T13:13:57.609Z,50.88
2018-10-11T13:16:26.828Z,50.57
2018-10-11T13:18:55.977Z,52.07
2018-10-11T13:21:25.210Z,51.94
2018-10-11T13:23:54.352Z,50.48
2018-10-11T13:26:23.479Z,51.03
2018-10-11T13:28:52.794Z,51.38
2018-10-11T13:31:21.836Z,51.92
2018-10-11T13:33:52.858Z,50.70
2018-10-11T13:36:20.178Z,51.97
2018-10-11T13:38:49.323Z,51.61
2018-10-11T13:41:18.565Z,51.96
2018-10-11T13:43:48.008Z,52.03
2018-10-11T13:46:17.157Z,51.99
2018-10-11T13:48:46.398Z,51.61
2018-10-11T13:51:15.541Z,52.37
2018-10-11T13:53:48.232Z,52.60
2018-10-11T13:56:13.848Z,53.35
2018-10-11T13:58:43.054Z,53.52
2018-10-11T14:01:12.183Z,54.29
2018-10-11T14:03:41.382Z,55.04
2018-10-11T14:06:10.542Z,54.85
2018-10-11T14:08:39.734Z,55.57
2018-10-11T14:11:09.169Z,55.79
2018-10-11T14:13:39.161Z,54.83
2018-10-11T14:16:08.435Z,54.72
2018-10-11T14:18:38.338Z,55.59
2018-10-11T14:21:08.570Z,55.56
2018-10-11T14:23:38.316Z,55.23
2018-10-11T14:26:07.855Z,56.39
2018-10-11T14:28:37.012Z,55.25
2018-10-11T14:31:06.223Z,54.83
2018-10-11T14:33:35.349Z,56.07
2018-10-11T14:36:04.539Z,56.65
2018-10-11T14:38:33.728Z,56.71
2018-10-11T14:41:02.948Z,57.10
2018-10-11T14:43:32.151Z,57.52
2018-10-11T14:46:01.324Z,57.80
2018-10-11T14:48:30.538Z,56.81
2018-10-11T14:50:59.780Z,57.02
2018-10-11T14:53:28.928Z,56.33
2018-10-11T14:55:58.166Z,57.75
2018-10-11T14:58:27.307Z,57.31
2018-10-11T15:00:56.545Z,57.71
2018-10-11T15:03:25.722Z,58.35
2018-10-11T15:05:54.892Z,59.21
2018-10-11T15:08:24.173Z,59.59
2018-10-11T15:10:53.694Z,59.47
2018-10-11T15:13:23.512Z,59.56
2018-10-11T15:15:52.783Z,60.00
2018-10-11T15:18:21.998Z,60.53
2018-10-11T15:20:51.285Z,60.45
2018-10-11T15:23:20.526Z,60.66
2018-10-11T15:25:49.749Z,61.29
2018-10-11T15:28:18.893Z,61.86
2018-10-11T15:30:49.120Z,61.91
2018-10-11T15:33:18.303Z,62.45
2018-10-11T15:35:47.498Z,62.97
2018-10-11T15:38:16.636Z,63.09
2018-10-11T15:40:45.784Z,62.84
2018-10-11T15:43:15.205Z,63.76
2018-10-11T15:45:44.332Z,63.10
2018-10-11T15:48:13.513Z,64.21
2018-10-11T15:50:42.690Z,63.76
2018-10-11T15:53:11.882Z,64.36
2018-10-11T15:55:41.140Z,65.23
2018-10-11T15:58:10.274Z,64.97
2018-10-11T16:00:39.400Z,65.15
2018-10-11T16:03:08.599Z,66.22
2018-10-11T16:05:37.838Z,66.01
2018-10-11T16:08:07.037Z,66.53
2018-10-11T16:10:36.129Z,66.98
2018-10-11T16:13:05.347Z,67.72
2018-10-11T16:15:34.503Z,68.21
2018-10-11T16:18:03.684Z,69.38
2018-10-11T16:20:32.852Z,69.28
2018-10-11T16:23:02.048Z,69.99
2018-10-11T16:25:31.201Z,69.79
2018-10-11T16:28:00.363Z,69.39
2018-10-11T16:30:29.546Z,69.81
2018-10-11T16:32:58.776Z,70.64
2018-10-11T16:35:29.015Z,70.62
2018-10-11T16:37:58.207Z,70.94
2018-10-11T16:40:27.341Z,71.67
2018-10-11T16:42:56.565Z,71.44
2018-10-11T16:45:25.729Z,71.36
2018-10-11T16:47:55.069Z,72.17
2018-10-11T16:50:24.256Z,71.61
2018-10-11T16:52:53.417Z,72.14
2018-10-11T16:55:22.578Z,72.09
2018-10-11T16:57:51.749Z,72.03
2018-10-11T17:00:20.987Z,73.04
2018-10-11T17:02:50.136Z,72.59
2018-10-11T17:05:20.011Z,72.72
2018-10-11T17:07:49.164Z,73.49
2018-10-11T17:10:18.362Z,73.55
2018-10-11T17:12:47.539Z,73.36
2018-10-11T17:15:16.730Z,74.64
2018-10-11T17:17:45.878Z,74.69
2018-10-11T17:20:15.048Z,74.85
2018-10-11T17:22:44.186Z,74.49
2018-10-11T17:25:13.347Z,74.48
2018-10-11T17:27:42.519Z,74.58
2018-10-11T17:30:11.664Z,74.51
2018-10-11T17:32:40.935Z,75.12
2018-10-11T17:35:10.125Z,75.76
2018-10-11T17:37:39.311Z,75.95
2018-10-11T17:40:09.544Z,75.88
2018-10-11T17:42:38.750Z,75.98
2018-10-11T17:45:07.962Z,76.38
2018-10-11T17:47:37.095Z,76.18
2018-10-11T17:50:06.298Z,76.40
2018-10-11T17:52:35.492Z,75.85
2018-10-11T17:55:04.742Z,76.05
2018-10-11T17:57:33.887Z,75.56
2018-10-11T18:00:03.070Z,75.42
2018-10-11T18:02:32.256Z,75.88
2018-10-11T18:05:01.397Z,76.40
2018-10-11T18:07:30.559Z,77.02
2018-10-11T18:09:59.783Z,76.88
2018-10-11T18:12:28.901Z,77.41
2018-10-11T18:14:58.085Z,76.88
2018-10-11T18:17:27.280Z,76.93
2018-10-11T18:19:56.456Z,77.60
2018-10-11T18:22:25.626Z,77.82
2018-10-11T18:24:54.782Z,77.41
2018-10-11T18:27:23.929Z,77.40
2018-10-11T18:29:53.305Z,77.71
2018-10-11T18:32:22.478Z,78.51
2018-10-11T18:34:51.755Z,78.37
2018-10-11T18:37:20.986Z,78.45
2018-10-11T18:39:50.104Z,78.80
2018-10-11T18:42:19.263Z,77.98
2018-10-11T18:44:48.419Z,78.17
2018-10-11T18:47:17.618Z,77.91
2018-10-11T18:49:47.198Z,77.96
2018-10-11T18:52:16.293Z,78.37
2018-10-11T18:54:45.517Z,78.95
2018-10-11T18:57:14.659Z,79.25
2018-10-11T18:59:43.788Z,79.42
2018-10-11T19:02:13.180Z,79.50
2018-10-11T19:04:42.351Z,79.16
2018-10-11T19:07:12.157Z,79.36
2018-10-11T19:10:08.940Z,79.67
2018-10-11T19:12:38.220Z,79.68
2018-10-11T19:15:07.691Z,80.34
2018-10-11T19:17:36.842Z,80.05
2018-10-11T19:20:06.040Z,80.10
2018-10-11T19:22:35.857Z,79.81
2018-10-11T19:25:05.160Z,79.97
2018-10-11T19:27:34.383Z,79.86
2018-10-11T19:30:03.553Z,80.29
2018-10-11T19:32:32.745Z,79.81
2018-10-11T19:35:01.898Z,79.54
2018-10-11T19:37:31.087Z,80.27
2018-10-11T19:40:00.255Z,80.74
2018-10-11T19:42:29.444Z,80.83
2018-10-11T19:44:58.566Z,80.99
2018-10-11T19:47:27.774Z,80.73
2018-10-11T19:49:56.968Z,80.56
2018-10-11T19:52:26.127Z,80.28
2018-10-11T19:54:55.346Z,80.07
2018-10-11T19:57:24.507Z,80.11
2018-10-11T19:59:53.676Z,80.33
2018-10-11T20:02:22.880Z,80.28
2018-10-11T20:04:52.826Z,80.41
2018-10-11T20:07:21.980Z,81.26
2018-10-11T20:09:51.260Z,81.32
2018-10-11T20:12:20.454Z,81.07
2018-10-11T20:14:49.712Z,81.42
2018-10-11T20:17:19.018Z,81.68
2018-10-11T20:19:48.089Z,81.37
2018-10-11T20:22:17.294Z,81.09
2018-10-11T20:24:46.433Z,81.13
2018-10-11T20:27:15.631Z,81.07
2018-10-11T20:29:44.832Z,80.84
2018-10-11T20:32:14.010Z,81.15
2018-10-11T20:34:43.136Z,80.68
2018-10-11T20:37:12.473Z,81.39
2018-10-11T20:39:41.758Z,81.17
2018-10-11T20:42:10.963Z,81.00
2018-10-11T20:44:40.142Z,81.26
2018-10-11T20:47:09.330Z,81.49
2018-10-11T20:49:38.621Z,81.41
2018-10-11T20:52:07.844Z,81.33
2018-10-11T20:54:37.027Z,81.51
2018-10-11T20:57:06.439Z,81.49
2018-10-11T20:59:35.600Z,81.37
2018-10-11T21:02:04.910Z,81.61
2018-10-11T21:04:34.166Z,81.30
2018-10-11T21:07:03.292Z,81.23
2018-10-11T21:09:32.443Z,81.40
2018-10-11T21:12:01.656Z,81.20
2018-10-11T21:14:30.902Z,81.87
2018-10-11T21:17:00.034Z,81.73
2018-10-11T21:19:29.181Z,82.09
2018-10-11T21:21:58.576Z,82.00
2018-10-11T21:24:27.743Z,82.07
2018-10-11T21:26:56.934Z,81.80
2018-10-11T21:29:26.091Z,81.84
2018-10-11T21:31:55.612Z,81.75
2018-10-11T21:34:24.855Z,81.64
2018-10-11T21:36:54.072Z,81.71
2018-10-11T21:39:23.217Z,82.00
2018-10-11T21:41:52.507Z,81.71
2018-10-11T21:44:21.636Z,81.45
2018-10-11T21:46:50.828Z,81.34
2018-10-11T21:49:20.304Z,81.28
2018-10-11T21:51:49.514Z,81.08
2018-10-11T21:54:18.755Z,81.25
2018-10-11T21:56:47.911Z,81.33
2018-10-11T21:59:17.128Z,81.58
2018-10-11T22:01:46.286Z,81.70
2018-10-11T22:04:15.453Z,81.67
2018-10-11T22:06:44.688Z,81.76
2018-10-11T22:09:13.916Z,81.76
2018-10-11T22:11:43.119Z,81.83
2018-10-11T22:14:12.304Z,81.31
2018-10-11T22:16:41.476Z,81.68
2018-10-11T22:19:10.618Z,81.24
2018-10-11T22:21:39.795Z,81.40
2018-10-11T22:24:09.233Z,81.56
2018-10-11T22:26:38.500Z,81.15
2018-10-11T22:29:07.809Z,80.82
2018-10-11T22:31:36.948Z,81.18
2018-10-11T22:34:06.185Z,80.89
2018-10-11T22:36:35.525Z,81.47
2018-10-11T22:39:06.406Z,81.50
2018-10-11T22:41:35.595Z,81.48
2018-10-11T22:44:04.860Z,81.32
2018-10-11T22:46:34.143Z,81.28
2018-10-11T22:49:03.332Z,81.51
2018-10-11T22:51:32.535Z,81.50
2018-10-11T22:54:01.835Z,81.34
2018-10-11T22:56:30.995Z,81.64
2018-10-11T22:59:00.153Z,81.49
2018-10-11T23:01:29.301Z,81.39
2018-10-11T23:03:58.468Z,81.72
2018-10-11T23:06:27.593Z,81.48
2018-10-11T23:08:56.809Z,81.37
2018-10-11T23:11:26.052Z,81.25
2018-10-11T23:13:55.136Z,80.90
2018-10-11T23:16:24.314Z,81.27
2018-10-11T23:18:53.453Z,81.53
2018-10-11T23:21:22.655Z,81.45
2018-10-11T23:23:51.844Z,81.54
2018-10-11T23:26:20.956Z,81.55
2018-10-11T23:28:50.119Z,81.10
2018-10-11T23:31:19.344Z,81.13
2018-10-11T23:33:48.510Z,81.35
2018-10-11T23:36:17.677Z,81.25
2018-10-11T23:38:46.829Z,81.45
2018-10-11T23:41:16.014Z,81.24
2018-10-11T23:43:45.240Z,81.89
2018-10-11T23:46:14.373Z,81.94
2018-10-11T23:48:43.536Z,81.64
2018-10-11T23:51:12.684Z,81.36
2018-10-11T23:53:41.897Z,81.74
2018-10-11T23:56:11.136Z,81.60
2018-10-11T23:58:40.322Z,81.63
